sensor_id;sensor_type;location;lat;lon;timestamp;temperature;humidity
20862;DHT22;10591;52.532;13.348;2022-08-19T00:00:16;21.91;82.80
20862;DHT22;10591;52.532;13.348;2022-08-19T00:02:47;22.06;82.02
20862;DHT22;10591;52.532;13.348;2022-08-19T00:05:20;22.14;82.01
20862;DHT22;10591;52.532;13.348;2022-08-19T00:07:51;22.15;81.63
20862;DHT22;10591;52.532;13.348;2022-08-19T00:10:22;22.34;81.13
20862;DHT22;10591;52.532;13.348;2022-08-19T00:12:53;22.42;80.97
20862;DHT22;10591;52.532;13.348;2022-08-19T00:15:24;22.20;81.02
20862;DHT22;10591;52.532;13.348;2022-08-19T00:17:55;22.39;80.52
20862;DHT22;10591;52.532;13.348;2022-08-19T00:20:25;22.16;81.04
20862;DHT22;10591;52.532;13.348;2022-08-19T00:22:56;22.16;81.27
20862;DHT22;10591;52.532;13.348;2022-08-19T00:25:28;21.93;82.12
20862;DHT22;10591;52.532;13.348;2022-08-19T00:27:59;22.11;81.26
20862;DHT22;10591;52.532;13.348;2022-08-19T00:30:29;21.74;82.15
20862;DHT22;10591;52.532;13.348;2022-08-19T00:33:00;21.61;82.71
20862;DHT22;10591;52.532;13.348;2022-08-19T00:35:31;21.91;82.06
20862;DHT22;10591;52.532;13.348;2022-08-19T00:38:03;21.97;81.56
20862;DHT22;10591;52.532;13.348;2022-08-19T00:40:35;22.08;82.05
20862;DHT22;10591;52.532;13.348;2022-08-19T00:43:10;22.36;80.79
20862;DHT22;10591;52.532;13.348;2022-08-19T00:45:42;22.11;81.25
20862;DHT22;10591;52.532;13.348;2022-08-19T00:48:14;22.09;81.02
20862;DHT22;10591;52.532;13.348;2022-08-19T00:50:47;22.04;80.81
20862;DHT22;10591;52.532;13.348;2022-08-19T00:53:22;21.99;80.61
20862;DHT22;10591;52.532;13.348;2022-08-19T00:55:56;21.92;81.37
20862;DHT22;10591;52.532;13.348;2022-08-19T00:58:31;21.62;84.36
20862;DHT22;10591;52.532;13.348;2022-08-19T01:01:04;21.30;85.43
20862;DHT22;10591;52.532;13.348;2022-08-19T01:03:38;21.06;86.45
20862;DHT22;10591;52.532;13.348;2022-08-19T01:06:12;20.86;87.26
20862;DHT22;10591;52.532;13.348;2022-08-19T01:08:47;20.68;87.80
20862;DHT22;10591;52.532;13.348;2022-08-19T01:11:18;20.56;87.07
20862;DHT22;10591;52.532;13.348;2022-08-19T01:13:50;20.28;88.12
20862;DHT22;10591;52.532;13.348;2022-08-19T01:16:24;20.18;88.63
20862;DHT22;10591;52.532;13.348;2022-08-19T01:18:55;20.26;88.35
20862;DHT22;10591;52.532;13.348;2022-08-19T01:21:31;20.23;88.54
20862;DHT22;10591;52.532;13.348;2022-08-19T01:24:04;20.20;88.46
20862;DHT22;10591;52.532;13.348;2022-08-19T01:26:43;20.09;88.60
20862;DHT22;10591;52.532;13.348;2022-08-19T01:29:13;20.14;88.54
20862;DHT22;10591;52.532;13.348;2022-08-19T01:31:43;20.28;88.43
20862;DHT22;10591;52.532;13.348;2022-08-19T01:34:14;20.17;88.45
20862;DHT22;10591;52.532;13.348;2022-08-19T01:36:47;20.25;88.42
20862;DHT22;10591;52.532;13.348;2022-08-19T01:39:21;20.11;88.34
20862;DHT22;10591;52.532;13.348;2022-08-19T01:41:52;20.10;88.43
20862;DHT22;10591;52.532;13.348;2022-08-19T01:44:23;20.28;88.43
20862;DHT22;10591;52.532;13.348;2022-08-19T01:46:54;20.37;88.35
20862;DHT22;10591;52.532;13.348;2022-08-19T01:49:25;20.46;88.31
20862;DHT22;10591;52.532;13.348;2022-08-19T01:51:56;20.35;88.23
20862;DHT22;10591;52.532;13.348;2022-08-19T01:54:30;20.42;88.25
20862;DHT22;10591;52.532;13.348;2022-08-19T01:57:04;20.42;88.20
20862;DHT22;10591;52.532;13.348;2022-08-19T01:59:35;20.40;88.06
20862;DHT22;10591;52.532;13.348;2022-08-19T02:02:06;20.53;88.08
20862;DHT22;10591;52.532;13.348;2022-08-19T02:04:38;20.58;87.95
20862;DHT22;10591;52.532;13.348;2022-08-19T02:07:08;20.43;88.11
20862;DHT22;10591;52.532;13.348;2022-08-19T02:09:39;20.41;88.10
20862;DHT22;10591;52.532;13.348;2022-08-19T02:12:09;20.58;88.07
20862;DHT22;10591;52.532;13.348;2022-08-19T02:14:40;20.65;88.01
20862;DHT22;10591;52.532;13.348;2022-08-19T02:17:11;20.73;87.93
20862;DHT22;10591;52.532;13.348;2022-08-19T02:19:41;20.71;87.89
20862;DHT22;10591;52.532;13.348;2022-08-19T02:22:12;20.30;87.97
20862;DHT22;10591;52.532;13.348;2022-08-19T02:24:42;20.12;87.93
20862;DHT22;10591;52.532;13.348;2022-08-19T02:27:13;20.39;87.93
20862;DHT22;10591;52.532;13.348;2022-08-19T02:29:49;20.24;87.94
20862;DHT22;10591;52.532;13.348;2022-08-19T02:32:20;20.32;87.93
20862;DHT22;10591;52.532;13.348;2022-08-19T02:34:50;20.34;87.89
20862;DHT22;10591;52.532;13.348;2022-08-19T02:37:21;20.24;87.94
20862;DHT22;10591;52.532;13.348;2022-08-19T02:40:09;20.42;87.86
20862;DHT22;10591;52.532;13.348;2022-08-19T02:42:41;20.32;87.88
20862;DHT22;10591;52.532;13.348;2022-08-19T02:45:13;20.28;87.92
20862;DHT22;10591;52.532;13.348;2022-08-19T02:47:44;20.12;87.89
20862;DHT22;10591;52.532;13.348;2022-08-19T02:50:15;20.19;87.88
20862;DHT22;10591;52.532;13.348;2022-08-19T02:52:47;20.26;87.87
20862;DHT22;10591;52.532;13.348;2022-08-19T02:55:18;20.00;87.86
20862;DHT22;10591;52.532;13.348;2022-08-19T02:57:50;19.88;87.88
20862;DHT22;10591;52.532;13.348;2022-08-19T03:00:20;19.96;87.85
20862;DHT22;10591;52.532;13.348;2022-08-19T03:02:53;20.05;87.87
20862;DHT22;10591;52.532;13.348;2022-08-19T03:05:23;20.10;87.84
20862;DHT22;10591;52.532;13.348;2022-08-19T03:07:57;20.20;87.79
20862;DHT22;10591;52.532;13.348;2022-08-19T03:10:28;20.08;87.85
20862;DHT22;10591;52.532;13.348;2022-08-19T03:12:59;20.13;87.79
20862;DHT22;10591;52.532;13.348;2022-08-19T03:15:33;20.16;87.85
20862;DHT22;10591;52.532;13.348;2022-08-19T03:18:04;20.02;87.81
20862;DHT22;10591;52.532;13.348;2022-08-19T03:20:42;20.12;87.86
20862;DHT22;10591;52.532;13.348;2022-08-19T03:23:14;20.02;87.87
20862;DHT22;10591;52.532;13.348;2022-08-19T03:25:46;20.12;87.84
20862;DHT22;10591;52.532;13.348;2022-08-19T03:28:19;20.10;87.83
20862;DHT22;10591;52.532;13.348;2022-08-19T03:31:02;20.18;87.76
20862;DHT22;10591;52.532;13.348;2022-08-19T03:33:35;20.01;87.81
20862;DHT22;10591;52.532;13.348;2022-08-19T03:36:14;20.16;87.78
20862;DHT22;10591;52.532;13.348;2022-08-19T03:38:47;19.99;87.81
20862;DHT22;10591;52.532;13.348;2022-08-19T03:41:27;20.03;87.79
20862;DHT22;10591;52.532;13.348;2022-08-19T03:44:00;19.96;87.80
20862;DHT22;10591;52.532;13.348;2022-08-19T03:46:32;19.90;87.79
20862;DHT22;10591;52.532;13.348;2022-08-19T03:49:04;19.96;87.80
20862;DHT22;10591;52.532;13.348;2022-08-19T03:51:39;19.92;87.84
20862;DHT22;10591;52.532;13.348;2022-08-19T03:54:12;20.01;87.81
20862;DHT22;10591;52.532;13.348;2022-08-19T03:56:44;19.86;87.80
20862;DHT22;10591;52.532;13.348;2022-08-19T03:59:21;19.92;87.79
20862;DHT22;10591;52.532;13.348;2022-08-19T04:01:49;19.93;87.84
20862;DHT22;10591;52.532;13.348;2022-08-19T04:04:20;20.03;87.82
20862;DHT22;10591;52.532;13.348;2022-08-19T04:06:51;20.01;87.69
20862;DHT22;10591;52.532;13.348;2022-08-19T04:09:21;19.97;87.76
20862;DHT22;10591;52.532;13.348;2022-08-19T04:11:54;20.16;87.71
20862;DHT22;10591;52.532;13.348;2022-08-19T04:14:28;20.15;87.56
20862;DHT22;10591;52.532;13.348;2022-08-19T04:17:03;19.94;87.84
20862;DHT22;10591;52.532;13.348;2022-08-19T04:19:36;20.05;87.72
20862;DHT22;10591;52.532;13.348;2022-08-19T04:22:08;20.04;87.68
20862;DHT22;10591;52.532;13.348;2022-08-19T04:24:40;20.04;87.63
20862;DHT22;10591;52.532;13.348;2022-08-19T04:27:12;20.12;87.67
20862;DHT22;10591;52.532;13.348;2022-08-19T04:29:44;20.12;87.69
20862;DHT22;10591;52.532;13.348;2022-08-19T04:32:18;20.20;87.33
20862;DHT22;10591;52.532;13.348;2022-08-19T04:34:51;20.34;87.39
20862;DHT22;10591;52.532;13.348;2022-08-19T04:37:25;20.33;87.32
20862;DHT22;10591;52.532;13.348;2022-08-19T04:39:58;20.44;87.04
20862;DHT22;10591;52.532;13.348;2022-08-19T04:42:47;20.37;87.32
20862;DHT22;10591;52.532;13.348;2022-08-19T04:45:18;20.44;87.53
20862;DHT22;10591;52.532;13.348;2022-08-19T04:47:54;20.54;87.43
20862;DHT22;10591;52.532;13.348;2022-08-19T04:50:30;20.48;87.00
20862;DHT22;10591;52.532;13.348;2022-08-19T04:52:56;20.46;87.40
20862;DHT22;10591;52.532;13.348;2022-08-19T04:55:26;20.65;86.71
20862;DHT22;10591;52.532;13.348;2022-08-19T04:57:57;20.70;86.23
20862;DHT22;10591;52.532;13.348;2022-08-19T05:00:28;20.78;86.20
20862;DHT22;10591;52.532;13.348;2022-08-19T05:02:59;20.73;86.92
20862;DHT22;10591;52.532;13.348;2022-08-19T05:05:33;20.84;86.31
20862;DHT22;10591;52.532;13.348;2022-08-19T05:08:10;21.08;85.54
20862;DHT22;10591;52.532;13.348;2022-08-19T05:10:42;21.06;85.52
20862;DHT22;10591;52.532;13.348;2022-08-19T05:13:15;21.62;84.01
20862;DHT22;10591;52.532;13.348;2022-08-19T05:15:54;22.06;83.45
20862;DHT22;10591;52.532;13.348;2022-08-19T05:18:25;22.47;80.80
20862;DHT22;10591;52.532;13.348;2022-08-19T05:21:16;22.98;79.92
20862;DHT22;10591;52.532;13.348;2022-08-19T05:24:06;23.54;78.79
20862;DHT22;10591;52.532;13.348;2022-08-19T05:26:40;24.20;76.51
20862;DHT22;10591;52.532;13.348;2022-08-19T05:29:11;23.94;76.35
20862;DHT22;10591;52.532;13.348;2022-08-19T05:31:42;24.36;75.65
20862;DHT22;10591;52.532;13.348;2022-08-19T05:34:13;24.84;75.41
20862;DHT22;10591;52.532;13.348;2022-08-19T05:36:45;24.85;73.10
20862;DHT22;10591;52.532;13.348;2022-08-19T05:39:18;25.40;71.79
20862;DHT22;10591;52.532;13.348;2022-08-19T05:41:57;25.41;71.49
20862;DHT22;10591;52.532;13.348;2022-08-19T05:44:30;24.94;71.94
20862;DHT22;10591;52.532;13.348;2022-08-19T05:47:02;23.88;75.47
20862;DHT22;10591;52.532;13.348;2022-08-19T05:49:34;23.73;75.15
20862;DHT22;10591;52.532;13.348;2022-08-19T05:52:08;23.60;76.23
20862;DHT22;10591;52.532;13.348;2022-08-19T05:54:43;23.15;77.54
20862;DHT22;10591;52.532;13.348;2022-08-19T05:57:16;23.49;76.62
20862;DHT22;10591;52.532;13.348;2022-08-19T05:59:46;23.06;77.19
20862;DHT22;10591;52.532;13.348;2022-08-19T06:02:20;23.94;75.12
20862;DHT22;10591;52.532;13.348;2022-08-19T06:04:51;23.97;74.62
20862;DHT22;10591;52.532;13.348;2022-08-19T06:07:21;24.38;73.26
20862;DHT22;10591;52.532;13.348;2022-08-19T06:09:52;24.05;74.52
20862;DHT22;10591;52.532;13.348;2022-08-19T06:12:24;23.66;76.29
20862;DHT22;10591;52.532;13.348;2022-08-19T06:14:56;23.84;75.66
20862;DHT22;10591;52.532;13.348;2022-08-19T06:17:29;23.54;76.27
20862;DHT22;10591;52.532;13.348;2022-08-19T06:20:03;23.35;76.99
20862;DHT22;10591;52.532;13.348;2022-08-19T06:22:38;22.94;78.16
20862;DHT22;10591;52.532;13.348;2022-08-19T06:25:09;22.81;79.11
20862;DHT22;10591;52.532;13.348;2022-08-19T06:27:40;23.12;78.14
20862;DHT22;10591;52.532;13.348;2022-08-19T06:30:12;23.27;77.32
20862;DHT22;10591;52.532;13.348;2022-08-19T06:32:43;23.49;77.10
20862;DHT22;10591;52.532;13.348;2022-08-19T06:35:14;23.20;77.71
20862;DHT22;10591;52.532;13.348;2022-08-19T06:37:44;23.33;77.68
20862;DHT22;10591;52.532;13.348;2022-08-19T06:40:16;23.68;76.46
20862;DHT22;10591;52.532;13.348;2022-08-19T06:42:47;23.83;76.11
20862;DHT22;10591;52.532;13.348;2022-08-19T06:45:19;23.64;76.21
20862;DHT22;10591;52.532;13.348;2022-08-19T06:47:52;23.70;76.06
20862;DHT22;10591;52.532;13.348;2022-08-19T06:50:25;23.71;76.14
20862;DHT22;10591;52.532;13.348;2022-08-19T06:52:56;23.50;76.51
20862;DHT22;10591;52.532;13.348;2022-08-19T06:55:29;23.10;77.50
20862;DHT22;10591;52.532;13.348;2022-08-19T06:58:03;22.98;78.06
20862;DHT22;10591;52.532;13.348;2022-08-19T07:00:34;23.49;77.26
20862;DHT22;10591;52.532;13.348;2022-08-19T07:03:05;23.57;76.60
20862;DHT22;10591;52.532;13.348;2022-08-19T07:05:41;23.50;76.64
20862;DHT22;10591;52.532;13.348;2022-08-19T07:08:14;23.60;76.77
20862;DHT22;10591;52.532;13.348;2022-08-19T07:10:46;23.52;76.64
20862;DHT22;10591;52.532;13.348;2022-08-19T07:13:18;23.41;77.75
20862;DHT22;10591;52.532;13.348;2022-08-19T07:15:49;23.36;77.63
20862;DHT22;10591;52.532;13.348;2022-08-19T07:21:15;23.29;77.88
20862;DHT22;10591;52.532;13.348;2022-08-19T07:23:41;23.27;78.41
20862;DHT22;10591;52.532;13.348;2022-08-19T07:26:14;23.46;77.66
20862;DHT22;10591;52.532;13.348;2022-08-19T07:28:46;23.44;77.60
20862;DHT22;10591;52.532;13.348;2022-08-19T07:31:22;23.46;77.39
20862;DHT22;10591;52.532;13.348;2022-08-19T07:33:54;23.68;76.90
20862;DHT22;10591;52.532;13.348;2022-08-19T07:36:28;23.49;77.07
20862;DHT22;10591;52.532;13.348;2022-08-19T07:39:04;23.54;76.94
20862;DHT22;10591;52.532;13.348;2022-08-19T07:41:36;23.58;77.17
20862;DHT22;10591;52.532;13.348;2022-08-19T07:44:08;23.67;76.65
20862;DHT22;10591;52.532;13.348;2022-08-19T07:46:41;23.46;77.45
20862;DHT22;10591;52.532;13.348;2022-08-19T07:49:15;23.48;77.60
20862;DHT22;10591;52.532;13.348;2022-08-19T07:51:58;23.59;77.79
20862;DHT22;10591;52.532;13.348;2022-08-19T07:54:27;23.68;76.71
20862;DHT22;10591;52.532;13.348;2022-08-19T07:56:58;23.74;77.39
20862;DHT22;10591;52.532;13.348;2022-08-19T07:59:28;23.94;77.00
20862;DHT22;10591;52.532;13.348;2022-08-19T08:01:59;23.79;77.11
20862;DHT22;10591;52.532;13.348;2022-08-19T08:04:31;23.96;76.38
20862;DHT22;10591;52.532;13.348;2022-08-19T08:07:20;23.70;77.09
20862;DHT22;10591;52.532;13.348;2022-08-19T08:10:10;23.34;78.59
20862;DHT22;10591;52.532;13.348;2022-08-19T08:12:43;23.49;77.96
20862;DHT22;10591;52.532;13.348;2022-08-19T08:15:16;23.62;78.28
20862;DHT22;10591;52.532;13.348;2022-08-19T08:17:47;23.78;77.45
20862;DHT22;10591;52.532;13.348;2022-08-19T08:20:20;23.76;77.69
20862;DHT22;10591;52.532;13.348;2022-08-19T08:22:51;23.91;77.16
20862;DHT22;10591;52.532;13.348;2022-08-19T08:25:39;24.11;76.47
20862;DHT22;10591;52.532;13.348;2022-08-19T08:28:10;24.16;76.23
20862;DHT22;10591;52.532;13.348;2022-08-19T08:30:42;24.15;76.45
20862;DHT22;10591;52.532;13.348;2022-08-19T08:33:19;24.14;76.90
20862;DHT22;10591;52.532;13.348;2022-08-19T08:35:52;24.12;76.60
20862;DHT22;10591;52.532;13.348;2022-08-19T08:38:22;24.22;77.13
20862;DHT22;10591;52.532;13.348;2022-08-19T08:40:57;24.41;75.85
20862;DHT22;10591;52.532;13.348;2022-08-19T08:43:38;24.53;75.48
20862;DHT22;10591;52.532;13.348;2022-08-19T08:54:21;24.20;76.92
20862;DHT22;10591;52.532;13.348;2022-08-19T08:56:53;24.23;76.49
20862;DHT22;10591;52.532;13.348;2022-08-19T08:59:35;24.20;76.56
20862;DHT22;10591;52.532;13.348;2022-08-19T09:02:01;24.04;77.31
20862;DHT22;10591;52.532;13.348;2022-08-19T09:04:35;24.24;76.44
20862;DHT22;10591;52.532;13.348;2022-08-19T09:07:30;24.13;76.93
20862;DHT22;10591;52.532;13.348;2022-08-19T09:10:10;24.18;76.54
20862;DHT22;10591;52.532;13.348;2022-08-19T09:15:32;24.23;76.71
20862;DHT22;10591;52.532;13.348;2022-08-19T09:18:04;24.55;75.55
20862;DHT22;10591;52.532;13.348;2022-08-19T09:20:35;24.52;76.30
20862;DHT22;10591;52.532;13.348;2022-08-19T09:23:08;24.83;74.86
20862;DHT22;10591;52.532;13.348;2022-08-19T09:25:40;25.04;74.13
20862;DHT22;10591;52.532;13.348;2022-08-19T09:28:10;25.50;72.80
20862;DHT22;10591;52.532;13.348;2022-08-19T09:30:42;25.22;73.36
20862;DHT22;10591;52.532;13.348;2022-08-19T09:33:14;25.34;73.18
20862;DHT22;10591;52.532;13.348;2022-08-19T09:35:48;25.16;73.51
20862;DHT22;10591;52.532;13.348;2022-08-19T09:38:21;25.08;73.64
20862;DHT22;10591;52.532;13.348;2022-08-19T09:40:52;24.96;74.25
20862;DHT22;10591;52.532;13.348;2022-08-19T09:43:22;25.50;73.11
20862;DHT22;10591;52.532;13.348;2022-08-19T09:45:56;25.20;73.28
20862;DHT22;10591;52.532;13.348;2022-08-19T09:48:27;25.57;72.37
20862;DHT22;10591;52.532;13.348;2022-08-19T09:51:11;25.12;73.48
20862;DHT22;10591;52.532;13.348;2022-08-19T09:53:39;25.02;73.88
20862;DHT22;10591;52.532;13.348;2022-08-19T09:56:10;24.65;74.78
20862;DHT22;10591;52.532;13.348;2022-08-19T09:58:41;24.79;74.63
20862;DHT22;10591;52.532;13.348;2022-08-19T10:01:18;24.50;75.64
20862;DHT22;10591;52.532;13.348;2022-08-19T10:03:52;24.40;75.87
20862;DHT22;10591;52.532;13.348;2022-08-19T10:06:25;24.61;75.12
20862;DHT22;10591;52.532;13.348;2022-08-19T10:09:00;24.68;75.08
20862;DHT22;10591;52.532;13.348;2022-08-19T10:11:35;25.06;73.76
20862;DHT22;10591;52.532;13.348;2022-08-19T10:14:08;24.80;74.36
20862;DHT22;10591;52.532;13.348;2022-08-19T10:16:39;24.62;74.82
20862;DHT22;10591;52.532;13.348;2022-08-19T10:19:11;24.60;75.17
20862;DHT22;10591;52.532;13.348;2022-08-19T10:21:42;24.58;75.72
20862;DHT22;10591;52.532;13.348;2022-08-19T10:24:14;24.89;74.51
20862;DHT22;10591;52.532;13.348;2022-08-19T10:26:47;24.95;73.81
20862;DHT22;10591;52.532;13.348;2022-08-19T10:29:19;24.54;75.36
20862;DHT22;10591;52.532;13.348;2022-08-19T10:31:52;24.67;74.67
20862;DHT22;10591;52.532;13.348;2022-08-19T10:34:25;24.54;75.30
20862;DHT22;10591;52.532;13.348;2022-08-19T10:36:58;24.25;75.84
20862;DHT22;10591;52.532;13.348;2022-08-19T10:39:32;24.11;76.28
20862;DHT22;10591;52.532;13.348;2022-08-19T10:42:06;24.09;77.24
20862;DHT22;10591;52.532;13.348;2022-08-19T10:44:39;23.84;77.51
20862;DHT22;10591;52.532;13.348;2022-08-19T10:47:10;24.02;77.42
20862;DHT22;10591;52.532;13.348;2022-08-19T10:49:42;23.76;77.95
20862;DHT22;10591;52.532;13.348;2022-08-19T10:52:32;23.73;78.09
20862;DHT22;10591;52.532;13.348;2022-08-19T10:55:06;23.61;78.66
20862;DHT22;10591;52.532;13.348;2022-08-19T10:57:56;23.41;79.15
20862;DHT22;10591;52.532;13.348;2022-08-19T11:00:31;23.55;78.74
20862;DHT22;10591;52.532;13.348;2022-08-19T11:03:01;23.59;78.91
20862;DHT22;10591;52.532;13.348;2022-08-19T11:05:32;24.02;77.61
20862;DHT22;10591;52.532;13.348;2022-08-19T11:08:05;23.94;77.49
20862;DHT22;10591;52.532;13.348;2022-08-19T11:10:43;23.81;77.99
20862;DHT22;10591;52.532;13.348;2022-08-19T11:13:15;23.78;77.94
20862;DHT22;10591;52.532;13.348;2022-08-19T11:15:45;23.80;77.83
20862;DHT22;10591;52.532;13.348;2022-08-19T11:18:16;23.84;77.68
20862;DHT22;10591;52.532;13.348;2022-08-19T11:20:47;23.56;78.13
20862;DHT22;10591;52.532;13.348;2022-08-19T11:23:18;23.64;77.91
20862;DHT22;10591;52.532;13.348;2022-08-19T11:25:49;23.60;78.40
20862;DHT22;10591;52.532;13.348;2022-08-19T11:28:20;23.60;77.89
20862;DHT22;10591;52.532;13.348;2022-08-19T11:30:51;23.60;77.74
20862;DHT22;10591;52.532;13.348;2022-08-19T11:33:22;23.50;78.14
20862;DHT22;10591;52.532;13.348;2022-08-19T11:35:53;23.71;77.73
20862;DHT22;10591;52.532;13.348;2022-08-19T11:38:23;23.62;77.50
20862;DHT22;10591;52.532;13.348;2022-08-19T11:40:57;23.66;77.32
20862;DHT22;10591;52.532;13.348;2022-08-19T11:43:28;23.70;77.48
20862;DHT22;10591;52.532;13.348;2022-08-19T11:46:05;23.80;77.05
20862;DHT22;10591;52.532;13.348;2022-08-19T11:48:37;23.70;77.38
20862;DHT22;10591;52.532;13.348;2022-08-19T11:51:14;23.62;77.90
20862;DHT22;10591;52.532;13.348;2022-08-19T11:53:45;23.63;77.58
20862;DHT22;10591;52.532;13.348;2022-08-19T11:56:17;23.57;77.49
20862;DHT22;10591;52.532;13.348;2022-08-19T11:58:48;23.48;77.71
20862;DHT22;10591;52.532;13.348;2022-08-19T12:01:21;23.56;77.46
20862;DHT22;10591;52.532;13.348;2022-08-19T12:03:53;23.54;77.68
20862;DHT22;10591;52.532;13.348;2022-08-19T12:06:30;23.58;77.25
20862;DHT22;10591;52.532;13.348;2022-08-19T12:09:05;23.81;76.59
20862;DHT22;10591;52.532;13.348;2022-08-19T12:11:38;23.74;76.59
20862;DHT22;10591;52.532;13.348;2022-08-19T12:14:11;23.58;76.68
20862;DHT22;10591;52.532;13.348;2022-08-19T12:16:45;23.62;77.21
20862;DHT22;10591;52.532;13.348;2022-08-19T12:19:17;23.53;77.24
20862;DHT22;10591;52.532;13.348;2022-08-19T12:21:51;23.54;77.07
20862;DHT22;10591;52.532;13.348;2022-08-19T12:24:23;23.53;77.02
20862;DHT22;10591;52.532;13.348;2022-08-19T12:26:54;23.43;77.41
20862;DHT22;10591;52.532;13.348;2022-08-19T12:29:28;23.68;76.82
20862;DHT22;10591;52.532;13.348;2022-08-19T12:32:00;23.73;75.98
20862;DHT22;10591;52.532;13.348;2022-08-19T12:34:33;23.73;76.41
20862;DHT22;10591;52.532;13.348;2022-08-19T12:37:06;24.22;75.15
20862;DHT22;10591;52.532;13.348;2022-08-19T12:39:39;24.48;74.03
20862;DHT22;10591;52.532;13.348;2022-08-19T12:42:12;25.00;72.39
20862;DHT22;10591;52.532;13.348;2022-08-19T12:44:44;24.55;73.45
20862;DHT22;10591;52.532;13.348;2022-08-19T12:47:15;24.74;73.05
20862;DHT22;10591;52.532;13.348;2022-08-19T12:49:49;24.72;73.49
20862;DHT22;10591;52.532;13.348;2022-08-19T12:52:23;25.02;72.01
20862;DHT22;10591;52.532;13.348;2022-08-19T12:54:56;24.94;71.99
20862;DHT22;10591;52.532;13.348;2022-08-19T12:57:28;24.59;72.99
20862;DHT22;10591;52.532;13.348;2022-08-19T13:00:10;24.59;73.63
20862;DHT22;10591;52.532;13.348;2022-08-19T13:02:44;24.82;72.59
20862;DHT22;10591;52.532;13.348;2022-08-19T13:05:19;24.96;72.10
20862;DHT22;10591;52.532;13.348;2022-08-19T13:07:53;24.90;72.38
20862;DHT22;10591;52.532;13.348;2022-08-19T13:10:30;24.94;71.94
20862;DHT22;10591;52.532;13.348;2022-08-19T13:13:06;24.64;72.52
20862;DHT22;10591;52.532;13.348;2022-08-19T13:15:39;24.38;73.20
20862;DHT22;10591;52.532;13.348;2022-08-19T13:18:10;24.58;72.90
20862;DHT22;10591;52.532;13.348;2022-08-19T13:20:41;24.76;72.57
20862;DHT22;10591;52.532;13.348;2022-08-19T13:23:14;24.98;71.78
20862;DHT22;10591;52.532;13.348;2022-08-19T13:25:44;24.79;71.87
20862;DHT22;10591;52.532;13.348;2022-08-19T13:28:16;24.62;72.35
20862;DHT22;10591;52.532;13.348;2022-08-19T13:30:48;24.66;72.39
20862;DHT22;10591;52.532;13.348;2022-08-19T13:33:37;24.87;72.06
20862;DHT22;10591;52.532;13.348;2022-08-19T13:36:07;25.09;71.00
20862;DHT22;10591;52.532;13.348;2022-08-19T13:38:39;24.87;71.62
20862;DHT22;10591;52.532;13.348;2022-08-19T13:41:09;25.00;71.55
20862;DHT22;10591;52.532;13.348;2022-08-19T13:43:41;24.87;72.04
20862;DHT22;10591;52.532;13.348;2022-08-19T13:46:12;24.60;72.91
20862;DHT22;10591;52.532;13.348;2022-08-19T13:48:46;25.02;71.87
20862;DHT22;10591;52.532;13.348;2022-08-19T13:51:20;24.84;71.49
20862;DHT22;10591;52.532;13.348;2022-08-19T13:53:51;24.78;72.05
20862;DHT22;10591;52.532;13.348;2022-08-19T13:56:22;24.71;71.95
20862;DHT22;10591;52.532;13.348;2022-08-19T13:58:55;24.61;72.47
20862;DHT22;10591;52.532;13.348;2022-08-19T14:01:28;24.63;72.41
20862;DHT22;10591;52.532;13.348;2022-08-19T14:04:00;24.45;72.85
20862;DHT22;10591;52.532;13.348;2022-08-19T14:06:31;24.53;72.62
20862;DHT22;10591;52.532;13.348;2022-08-19T14:09:01;24.56;72.51
20862;DHT22;10591;52.532;13.348;2022-08-19T14:11:32;24.75;71.95
20862;DHT22;10591;52.532;13.348;2022-08-19T14:14:03;24.66;71.58
20862;DHT22;10591;52.532;13.348;2022-08-19T14:16:34;24.82;71.83
20862;DHT22;10591;52.532;13.348;2022-08-19T14:19:04;24.53;72.56
20862;DHT22;10591;52.532;13.348;2022-08-19T14:21:36;24.78;71.60
20862;DHT22;10591;52.532;13.348;2022-08-19T14:24:09;24.54;72.56
20862;DHT22;10591;52.532;13.348;2022-08-19T14:26:39;24.49;72.92
20862;DHT22;10591;52.532;13.348;2022-08-19T14:29:10;24.54;72.81
20862;DHT22;10591;52.532;13.348;2022-08-19T14:31:42;24.65;72.43
20862;DHT22;10591;52.532;13.348;2022-08-19T14:34:13;24.59;72.24
20862;DHT22;10591;52.532;13.348;2022-08-19T14:36:44;24.48;72.32
20862;DHT22;10591;52.532;13.348;2022-08-19T14:39:17;24.34;72.86
20862;DHT22;10591;52.532;13.348;2022-08-19T14:41:47;24.22;73.55
20862;DHT22;10591;52.532;13.348;2022-08-19T14:44:18;24.20;73.44
20862;DHT22;10591;52.532;13.348;2022-08-19T14:46:49;24.05;74.24
20862;DHT22;10591;52.532;13.348;2022-08-19T14:49:19;23.79;75.07
20862;DHT22;10591;52.532;13.348;2022-08-19T14:51:52;23.98;75.24
20862;DHT22;10591;52.532;13.348;2022-08-19T14:54:24;24.10;74.39
20862;DHT22;10591;52.532;13.348;2022-08-19T14:56:56;24.21;74.14
20862;DHT22;10591;52.532;13.348;2022-08-19T14:59:26;24.17;74.13
20862;DHT22;10591;52.532;13.348;2022-08-19T15:01:57;24.14;74.04
20862;DHT22;10591;52.532;13.348;2022-08-19T15:04:30;24.18;74.13
20862;DHT22;10591;52.532;13.348;2022-08-19T15:07:03;24.06;74.13
20862;DHT22;10591;52.532;13.348;2022-08-19T15:09:34;24.12;74.03
20862;DHT22;10591;52.532;13.348;2022-08-19T15:12:05;23.98;73.90
20862;DHT22;10591;52.532;13.348;2022-08-19T15:14:36;23.88;73.79
20862;DHT22;10591;52.532;13.348;2022-08-19T15:17:07;23.76;74.68
20862;DHT22;10591;52.532;13.348;2022-08-19T15:19:37;23.65;74.99
20862;DHT22;10591;52.532;13.348;2022-08-19T15:22:09;23.52;75.73
20862;DHT22;10591;52.532;13.348;2022-08-19T15:24:40;23.45;75.66
20862;DHT22;10591;52.532;13.348;2022-08-19T15:27:13;23.48;75.91
20862;DHT22;10591;52.532;13.348;2022-08-19T15:29:44;23.53;76.13
20862;DHT22;10591;52.532;13.348;2022-08-19T15:32:15;23.43;76.17
20862;DHT22;10591;52.532;13.348;2022-08-19T15:34:45;23.59;75.98
20862;DHT22;10591;52.532;13.348;2022-08-19T15:37:18;23.38;76.18
20862;DHT22;10591;52.532;13.348;2022-08-19T15:39:50;23.18;76.74
20862;DHT22;10591;52.532;13.348;2022-08-19T15:42:20;23.24;76.53
20862;DHT22;10591;52.532;13.348;2022-08-19T15:44:53;23.04;77.57
20862;DHT22;10591;52.532;13.348;2022-08-19T15:47:28;23.06;77.30
20862;DHT22;10591;52.532;13.348;2022-08-19T15:50:06;23.00;77.48
20862;DHT22;10591;52.532;13.348;2022-08-19T15:52:47;22.83;78.36
20862;DHT22;10591;52.532;13.348;2022-08-19T15:55:21;22.99;78.52
20862;DHT22;10591;52.532;13.348;2022-08-19T15:57:54;22.85;79.09
20862;DHT22;10591;52.532;13.348;2022-08-19T16:00:44;22.81;79.61
20862;DHT22;10591;52.532;13.348;2022-08-19T16:03:34;22.74;79.73